Time;durP1;ratioP1;P1;durP2;ratioP2;P2;SDS_P1;SDS_P2;PMS_P1;PMS_P2;Temp;Humidity;BMP_temperature;BMP_pressure;BME280_temperature;BME280_humidity;BME280_pressure;Samples;Min_cycle;Max_cycle;Signal;HPM_P1;HPM_P2
2022/03/17 07:05:10;;;;;;;7.28;5.78;;;;;;;;;;10595870;27;20477;-85
2022/03/17 07:10:15;;;;;;;8.13;5.57;;;;;;;;;;10641489;27;20040;-86
2022/03/17 07:15:58;;;;;;;8.43;6.18;;;;;;;;;;10641413;27;20047;-86
2022/03/17 07:21:51;;;;;;;9.32;7.00;;;;;;;;;;10653994;27;20054;-85
2022/03/17 07:27:04;;;;;;;7.00;6.00;;;;;;;;;;10670532;27;20042;-84
2022/03/17 07:32:07;;;;;;;7.00;6.13;;;;;;;;;;10654678;27;20027;-86
2022/03/17 07:37:08;;;;;;;;;;;;;;;;;;10668063;27;20027;-85
2022/03/17 07:42:10;;;;;;;9.27;7.18;;;;;;;;;;10657575;27;19926;-85
2022/03/17 07:47:11;;;;;;;10.00;7.40;;;;;;;;;;10655954;27;20031;-85
2022/03/17 07:52:13;;;;;;;11.15;7.20;;;;;;;;;;10672592;27;20019;-85
2022/03/17 07:57:14;;;;;;;8.70;5.85;;;;;;;;;;10654994;27;20106;-85
2022/03/17 08:02:16;;;;;;;4.55;2.78;;;;;;;;;;10652186;27;20018;-82
2022/03/17 08:07:17;;;;;;;5.15;2.90;;;;;;;;;;10656108;27;20118;-81
2022/03/17 08:12:18;;;;;;;;;;;;;;;;;;10655854;27;20564;-79
2022/03/17 08:17:19;;;;;;;4.88;2.20;;;;;;;;;;10644204;27;19916;-79
2022/03/17 08:22:20;;;;;;;6.93;2.50;;;;;;;;;;10615230;27;20136;-81
2022/03/17 08:27:21;;;;;;;8.43;3.90;;;;;;;;;;10622029;27;20019;-82
2022/03/17 08:32:22;;;;;;;6.25;3.28;;;;;;;;;;10624367;27;20034;-82
2022/03/17 08:37:23;;;;;;;6.30;2.55;;;;;;;;;;10626422;27;20384;-82
2022/03/17 08:42:24;;;;;;;7.13;2.70;;;;;;;;;;10639888;27;20548;-82
2022/03/17 08:52:44;;;;;;;5.03;2.20;;;;;;;;;;10642287;27;20055;-82
2022/03/17 08:57:45;;;;;;;3.83;2.28;;;;;;;;;;10642949;27;20392;-83
2022/03/17 09:02:48;;;;;;;3.55;1.95;;;;;;;;;;10642564;27;20088;-80
2022/03/17 09:07:49;;;;;;;6.15;1.80;;;;;;;;;;10621044;27;20019;-81
2022/03/17 09:12:55;;;;;;;4.05;2.30;;;;;;;;;;10624661;27;20037;-84
2022/03/17 09:17:56;;;;;;;4.53;2.35;;;;;;;;;;10625739;27;20023;-84
2022/03/17 09:22:57;;;;;;;4.50;1.60;;;;;;;;;;10624337;27;20023;-84
2022/03/17 09:27:58;;;;;;;4.70;1.70;;;;;;;;;;10625125;27;20027;-84
2022/03/17 09:32:59;;;;;;;5.13;1.40;;;;;;;;;;10627101;27;20145;-83
2022/03/17 09:38:00;;;;;;;4.13;1.73;;;;;;;;;;10628155;27;20084;-81
2022/03/17 09:43:19;;;;;;;5.60;1.90;;;;;;;;;;10625306;27;20533;-82
2022/03/17 09:48:21;;;;;;;4.43;1.98;;;;;;;;;;10622942;27;20019;-82
2022/03/17 09:53:26;;;;;;;3.97;1.90;;;;;;;;;;10623122;27;20027;-83
2022/03/17 09:58:27;;;;;;;3.65;1.50;;;;;;;;;;10622115;27;20027;-84
2022/03/17 10:03:29;;;;;;;4.07;1.65;;;;;;;;;;10623255;27;20473;-83
2022/03/17 10:08:33;;;;;;;3.67;1.30;;;;;;;;;;10622890;27;20019;-80
2022/03/17 10:13:42;;;;;;;3.75;1.50;;;;;;;;;;10617424;27;20023;-81
2022/03/17 10:18:46;;;;;;;4.63;1.67;;;;;;;;;;10618873;27;20030;-80
2022/03/17 10:23:54;;;;;;;5.00;1.73;;;;;;;;;;10617834;27;20110;-80
2022/03/17 10:29:03;;;;;;;4.85;2.10;;;;;;;;;;10616041;27;20034;-80
2022/03/17 10:34:04;;;;;;;4.50;1.60;;;;;;;;;;10617832;27;20126;-80
2022/03/17 10:39:09;;;;;;;6.60;1.52;;;;;;;;;;10617026;27;20401;-81
2022/03/17 10:44:11;;;;;;;4.40;1.60;;;;;;;;;;10617714;27;20027;-80
2022/03/17 10:49:12;;;;;;;4.57;1.70;;;;;;;;;;10616466;27;20124;-80
2022/03/17 10:54:20;;;;;;;6.47;1.80;;;;;;;;;;10614433;27;20147;-79
2022/03/17 10:59:21;;;;;;;5.00;1.40;;;;;;;;;;10633972;27;20024;-80
2022/03/17 11:04:22;;;;;;;3.88;1.17;;;;;;;;;;10616068;28;20048;-80
2022/03/17 11:09:23;;;;;;;4.80;1.77;;;;;;;;;;10615912;28;20023;-81
2022/03/17 11:14:24;;;;;;;3.70;1.50;;;;;;;;;;10615511;28;20140;-80
2022/03/17 11:19:25;;;;;;;3.95;1.15;;;;;;;;;;10622901;28;20030;-79
2022/03/17 11:24:27;;;;;;;3.65;1.40;;;;;;;;;;10618526;28;20036;-86
2022/03/17 11:29:28;;;;;;;4.05;1.40;;;;;;;;;;10625973;28;20114;-86
2022/03/17 11:34:47;;;;;;;3.78;1.35;;;;;;;;;;10582035;22;20051;-79
2022/03/17 11:39:52;;;;;;;5.57;2.67;;;;;;;;;;10544796;28;20028;-79
2022/03/17 11:45:01;;;;;;;9.93;5.82;;;;;;;;;;10509993;28;20028;-82
2022/03/17 11:50:06;;;;;;;10.50;7.10;;;;;;;;;;10507980;28;20122;-80
2022/03/17 11:55:33;;;;;;;8.70;6.60;;;;;;;;;;10506915;28;20050;-80
2022/03/17 12:00:45;;;;;;;11.15;7.15;;;;;;;;;;10475585;28;20032;-81
2022/03/17 12:06:04;;;;;;;10.23;5.60;;;;;;;;;;10507057;28;20458;-81
2022/03/17 12:11:10;;;;;;;11.10;6.40;;;;;;;;;;10508767;28;20024;-81
2022/03/17 12:16:37;;;;;;;8.70;5.88;;;;;;;;;;10507723;28;20482;-81
2022/03/17 12:21:57;;;;;;;9.48;4.03;;;;;;;;;;10507973;28;20100;-81
2022/03/17 12:27:17;;;;;;;9.53;6.07;;;;;;;;;;10510442;28;20020;-80
2022/03/17 12:32:19;;;;;;;17.43;13.37;;;;;;;;;;10506773;28;20113;-82
2022/03/17 12:37:22;;;;;;;17.80;12.25;;;;;;;;;;10506112;28;20029;-82
2022/03/17 12:42:26;;;;;;;13.20;9.50;;;;;;;;;;10503002;28;20029;-81
2022/03/17 12:47:28;;;;;;;11.50;6.78;;;;;;;;;;10507701;28;20023;-80
2022/03/17 12:52:32;;;;;;;11.77;8.80;;;;;;;;;;10506313;28;20031;-80
2022/03/17 12:57:37;;;;;;;9.55;6.15;;;;;;;;;;10513241;28;20481;-79
2022/03/17 13:02:50;;;;;;;11.30;8.43;;;;;;;;;;10513274;28;20029;-82
2022/03/17 13:08:14;;;;;;;14.90;10.52;;;;;;;;;;10510193;28;20083;-82
2022/03/17 13:19:25;;;;;;;11.50;8.13;;;;;;;;;;10505998;28;20032;-79
2022/03/17 13:25:11;;;;;;;13.15;7.85;;;;;;;;;;10504618;28;20351;-79
2022/03/17 13:30:16;;;;;;;18.58;14.82;;;;;;;;;;10503201;28;20021;-79
2022/03/17 13:35:17;;;;;;;13.05;8.65;;;;;;;;;;10502413;28;20569;-79
2022/03/17 13:40:19;;;;;;;12.15;9.27;;;;;;;;;;10501834;28;20037;-78
2022/03/17 13:45:31;;;;;;;10.05;8.27;;;;;;;;;;10506561;28;20029;-80
2022/03/17 13:51:03;;;;;;;11.57;5.97;;;;;;;;;;10506018;28;20037;-81
2022/03/17 13:56:11;;;;;;;16.20;11.95;;;;;;;;;;10499553;28;20156;-80
2022/03/17 14:01:32;;;;;;;14.93;11.15;;;;;;;;;;10506056;28;20058;-80
2022/03/17 14:06:34;;;;;;;5.55;2.33;;;;;;;;;;10505220;28;20028;-80
2022/03/17 14:11:42;;;;;;;12.50;8.43;;;;;;;;;;10514088;28;20448;-80
2022/03/17 14:16:47;;;;;;;8.60;5.20;;;;;;;;;;10513637;28;20024;-82
2022/03/17 14:27:28;;;;;;;10.77;6.30;;;;;;;;;;10508743;28;20032;-80
2022/03/17 14:32:32;;;;;;;9.43;5.35;;;;;;;;;;10500803;28;20035;-80
2022/03/17 14:37:33;;;;;;;9.85;4.07;;;;;;;;;;10505861;28;20033;-80
2022/03/17 14:42:34;;;;;;;5.43;2.80;;;;;;;;;;10506253;28;20028;-80
2022/03/17 14:47:40;;;;;;;6.05;3.25;;;;;;;;;;10510732;28;20188;-81
2022/03/17 14:52:42;;;;;;;6.70;2.38;;;;;;;;;;10508449;28;20025;-81
2022/03/17 14:57:43;;;;;;;5.35;2.97;;;;;;;;;;10505834;28;20021;-82
2022/03/17 15:02:45;;;;;;;5.47;2.55;;;;;;;;;;10510741;28;20096;-83
2022/03/17 15:08:07;;;;;;;5.25;2.47;;;;;;;;;;10508832;28;20112;-82
2022/03/17 15:13:08;;;;;;;4.18;2.08;;;;;;;;;;10511782;28;20028;-79
2022/03/17 15:18:09;;;;;;;3.80;1.80;;;;;;;;;;10522403;28;20013;-81
2022/03/17 15:23:11;;;;;;;3.65;1.50;;;;;;;;;;10515840;28;20041;-81
2022/03/17 15:33:39;;;;;;;4.05;1.55;;;;;;;;;;10514500;28;20036;-82
2022/03/17 15:38:41;;;;;;;3.95;1.60;;;;;;;;;;10496230;28;20029;-81
2022/03/17 15:43:54;;;;;;;5.32;1.77;;;;;;;;;;10514384;28;20386;-81
2022/03/17 15:49:03;;;;;;;4.57;1.40;;;;;;;;;;10534861;28;20118;-81
2022/03/17 15:54:07;;;;;;;3.30;1.30;;;;;;;;;;10526821;28;20112;-81
2022/03/17 15:59:20;;;;;;;2.88;1.33;;;;;;;;;;10519638;28;20533;-81
2022/03/17 16:04:32;;;;;;;3.38;1.40;;;;;;;;;;10510732;28;20024;-83
2022/03/17 16:14:58;;;;;;;5.47;2.53;;;;;;;;;;10511803;28;20044;-82
2022/03/17 16:20:11;;;;;;;2.58;1.10;;;;;;;;;;10508378;28;20047;-83
2022/03/17 16:25:17;;;;;;;3.97;1.20;;;;;;;;;;10508474;28;20087;-81
2022/03/17 16:30:22;;;;;;;2.88;1.27;;;;;;;;;;10507908;28;20020;-81
2022/03/17 16:35:23;;;;;;;5.25;1.40;;;;;;;;;;10509744;28;20040;-82
2022/03/17 16:40:24;;;;;;;3.22;1.17;;;;;;;;;;10514131;28;20028;-81
2022/03/17 16:45:47;;;;;;;3.72;1.45;;;;;;;;;;10512007;28;20029;-81
2022/03/17 16:50:49;;;;;;;4.13;1.30;;;;;;;;;;10488232;28;20047;-80
2022/03/17 16:55:56;;;;;;;3.95;1.50;;;;;;;;;;10510597;28;20020;-81
2022/03/17 17:01:12;;;;;;;3.78;1.80;;;;;;;;;;10512896;28;20021;-81
2022/03/17 17:06:15;;;;;;;4.05;1.30;;;;;;;;;;10512423;28;20115;-80
2022/03/17 17:11:21;;;;;;;3.67;1.20;;;;;;;;;;10513240;28;20093;-80
2022/03/17 17:16:23;;;;;;;2.88;1.13;;;;;;;;;;10513120;28;20017;-80
2022/03/17 17:21:24;;;;;;;7.38;1.70;;;;;;;;;;10512288;28;20032;-81
2022/03/17 17:31:53;;;;;;;3.92;1.30;;;;;;;;;;10559125;22;20066;-85
2022/03/17 17:37:26;;;;;;;2.92;1.45;;;;;;;;;;10663099;27;20026;-86
2022/03/17 18:45:08;;;;;;;3.63;2.03;;;;;;;;;;10476088;28;20044;-87
2022/03/17 18:56:32;;;;;;;4.80;2.38;;;;;;;;;;10555001;28;20091;-86
2022/03/17 20:15:37;;;;;;;6.03;3.80;;;;;;;;;;10641375;27;20040;-85
2022/03/17 20:21:32;;;;;;;7.80;4.93;;;;;;;;;;10553437;28;20032;-85
2022/03/17 20:26:33;;;;;;;8.77;4.15;;;;;;;;;;10539929;28;20486;-86
